Time;durP1;ratioP1;P1;durP2;ratioP2;P2;SDS_P1;SDS_P2;PMS_P1;PMS_P2;Temp;Humidity;BMP_temperature;BMP_pressure;BME280_temperature;BME280_humidity;BME280_pressure;Samples;Min_cycle;Max_cycle;Signal;HPM_P1;HPM_P2
2023/01/04 00:01:09;;;;;;;12.30;3.63;;;8.70;99.90;;;;;;5083145;28;20368;-63
2023/01/04 00:03:35;;;;;;;7.35;2.88;;;8.60;99.90;;;;;;5087353;28;20157;-63
2023/01/04 00:06:03;;;;;;;9.68;2.92;;;8.60;99.90;;;;;;5099767;28;20355;-61
2023/01/04 00:08:29;;;;;;;9.77;3.33;;;8.70;99.90;;;;;;5096387;28;20511;-61
2023/01/04 00:11:06;;;;;;;10.60;3.28;;;8.60;99.90;;;;;;5095512;28;20452;-61
2023/01/04 00:13:33;;;;;;;9.27;2.97;;;8.60;99.90;;;;;;5089059;28;20036;-61
2023/01/04 00:16:04;;;;;;;7.40;3.25;;;8.70;99.90;;;;;;5081695;28;20420;-62
2023/01/04 00:18:30;;;;;;;8.45;3.08;;;8.70;99.90;;;;;;5096595;28;20481;-62
2023/01/04 00:21:18;;;;;;;7.78;3.25;;;8.70;99.90;;;;;;5096752;28;20484;-58
2023/01/04 00:23:47;;;;;;;9.20;3.55;;;8.60;99.90;;;;;;5092446;28;20121;-61
2023/01/04 00:26:22;;;;;;;6.55;3.00;;;8.50;99.90;;;;;;5095987;28;20397;-61
2023/01/04 00:28:51;;;;;;;8.10;3.25;;;8.50;99.90;;;;;;5088428;28;20422;-60
2023/01/04 00:31:17;;;;;;;10.05;3.58;;;8.40;99.90;;;;;;5097508;28;20098;-61
2023/01/04 00:33:42;;;;;;;9.10;3.10;;;8.50;99.90;;;;;;5085786;28;20028;-61
2023/01/04 00:36:11;;;;;;;9.55;3.58;;;8.50;99.90;;;;;;5100515;28;20044;-61
2023/01/04 00:38:38;;;;;;;8.95;3.53;;;8.40;99.90;;;;;;5075754;28;20048;-61
2023/01/04 00:41:05;;;;;;;7.40;3.00;;;8.40;99.90;;;;;;5085368;28;20033;-61
2023/01/04 00:43:31;;;;;;;9.80;3.60;;;8.50;99.90;;;;;;5096436;28;20032;-61
2023/01/04 00:45:57;;;;;;;9.50;3.17;;;8.50;99.90;;;;;;5101023;28;20118;-58
2023/01/04 00:48:22;;;;;;;7.35;3.25;;;8.40;99.90;;;;;;5081127;28;20446;-60
2023/01/04 00:50:48;;;;;;;10.32;3.50;;;8.50;99.90;;;;;;5091446;28;20032;-61
2023/01/04 00:53:15;;;;;;;6.38;2.90;;;8.40;99.90;;;;;;5075862;28;20428;-60
2023/01/04 00:55:41;;;;;;;8.43;3.47;;;8.40;99.90;;;;;;5090503;28;20040;-62
2023/01/04 00:58:06;;;;;;;9.55;3.42;;;8.30;99.90;;;;;;5101782;28;20028;-60
2023/01/04 01:00:33;;;;;;;7.40;3.17;;;8.40;99.90;;;;;;5104701;28;20429;-59
2023/01/04 01:02:58;;;;;;;10.15;3.80;;;8.30;99.90;;;;;;5096123;28;20027;-60
2023/01/04 01:05:24;;;;;;;10.75;3.53;;;8.50;99.90;;;;;;5099203;28;20380;-62
2023/01/04 01:07:50;;;;;;;6.82;3.13;;;8.30;99.90;;;;;;5096194;28;20133;-62
2023/01/04 01:10:15;;;;;;;7.40;3.33;;;8.40;99.90;;;;;;5102414;28;20036;-60
2023/01/04 01:12:41;;;;;;;10.98;3.13;;;8.40;99.90;;;;;;5097521;28;20068;-60
2023/01/04 01:15:07;;;;;;;8.60;3.17;;;8.40;99.90;;;;;;5103278;28;20131;-62
2023/01/04 01:17:33;;;;;;;8.43;3.42;;;8.30;99.90;;;;;;5075934;28;20483;-59
2023/01/04 01:19:59;;;;;;;6.10;3.17;;;8.30;99.90;;;;;;5096227;28;20089;-60
2023/01/04 01:22:25;;;;;;;6.32;2.97;;;8.40;99.90;;;;;;5100737;28;20393;-60
2023/01/04 01:24:51;;;;;;;7.45;3.47;;;8.30;99.90;;;;;;5095794;28;20120;-61
2023/01/04 01:27:18;;;;;;;6.95;2.90;;;8.40;99.90;;;;;;5076686;28;20059;-61
2023/01/04 01:29:43;;;;;;;6.07;3.20;;;8.30;99.90;;;;;;5095959;28;20460;-59
2023/01/04 01:32:09;;;;;;;8.05;3.00;;;8.30;99.90;;;;;;5083946;28;20094;-60
2023/01/04 01:34:34;;;;;;;7.13;3.03;;;8.50;99.90;;;;;;5091304;28;20040;-61
2023/01/04 01:37:01;;;;;;;6.88;3.00;;;8.40;99.90;;;;;;5102215;28;20168;-60
2023/01/04 01:39:27;;;;;;;6.22;2.90;;;8.40;99.90;;;;;;5083338;28;20537;-63
2023/01/04 01:41:53;;;;;;;6.43;3.13;;;8.40;99.90;;;;;;5078316;28;20115;-61
2023/01/04 01:44:40;;;;;;;6.35;2.63;;;8.50;99.90;;;;;;5095162;28;20118;-61
2023/01/04 01:47:13;;;;;;;7.22;3.17;;;8.40;99.90;;;;;;5086369;28;20040;-62
2023/01/04 01:49:40;;;;;;;7.63;2.63;;;8.40;99.90;;;;;;5101113;28;20058;-59
2023/01/04 01:52:15;;;;;;;7.32;2.95;;;8.30;99.90;;;;;;5104129;28;20395;-62
2023/01/04 01:54:44;;;;;;;6.03;2.83;;;8.30;99.90;;;;;;5092408;28;20058;-61
2023/01/04 01:57:16;;;;;;;9.00;2.80;;;8.40;99.90;;;;;;5083420;28;20123;-61
2023/01/04 01:59:44;;;;;;;6.43;2.67;;;8.30;99.90;;;;;;5088996;28;20118;-61
2023/01/04 02:02:10;;;;;;;5.55;2.78;;;8.50;99.90;;;;;;5093511;28;20044;-60
2023/01/04 02:04:48;;;;;;;4.63;2.08;;;8.60;99.90;;;;;;5096119;28;20362;-61
2023/01/04 02:07:18;;;;;;;4.80;2.20;;;8.40;99.90;;;;;;5095952;28;20364;-62
2023/01/04 02:09:45;;;;;;;4.47;2.30;;;8.50;99.90;;;;;;5096031;28;20040;-61
2023/01/04 02:12:11;;;;;;;5.30;2.67;;;8.60;99.90;;;;;;5095891;28;20434;-61
2023/01/04 02:14:37;;;;;;;4.93;2.30;;;8.50;99.90;;;;;;5086326;28;20037;-62
2023/01/04 02:17:19;;;;;;;6.47;2.28;;;8.50;99.90;;;;;;5091217;28;20147;-61
2023/01/04 02:20:06;;;;;;;3.72;1.85;;;8.50;99.90;;;;;;5089922;28;20059;-61
2023/01/04 02:23:07;;;;;;;4.90;2.10;;;8.50;99.90;;;;;;5095045;28;20036;-61
2023/01/04 02:25:57;;;;;;;3.60;1.88;;;8.60;99.90;;;;;;5089124;28;20475;-61
2023/01/04 02:28:25;;;;;;;3.60;2.00;;;8.60;99.90;;;;;;5106861;28;20109;-61
2023/01/04 02:30:57;;;;;;;3.35;1.70;;;8.70;99.90;;;;;;5108968;28;20031;-60
2023/01/04 02:33:59;;;;;;;2.83;1.73;;;8.70;99.90;;;;;;5089991;28;20036;-61
2023/01/04 02:36:39;;;;;;;3.28;1.70;;;8.80;99.90;;;;;;5085091;28;20118;-61
2023/01/04 02:39:33;;;;;;;2.75;1.50;;;8.60;99.90;;;;;;5098859;28;20050;-63
2023/01/04 02:42:19;;;;;;;2.97;1.50;;;8.70;99.90;;;;;;5050820;28;20044;-61
2023/01/04 02:44:52;;;;;;;4.90;1.80;;;8.90;99.90;;;;;;5080369;28;20459;-61
2023/01/04 02:50:30;;;;;;;4.03;1.30;;;8.90;99.90;;;;;;5105849;28;20058;-60
2023/01/04 02:53:18;;;;;;;2.50;1.30;;;9.10;99.90;;;;;;5088054;28;20036;-59
2023/01/04 02:56:04;;;;;;;3.15;1.60;;;9.00;99.90;;;;;;5094476;28;20494;-61
2023/01/04 02:58:58;;;;;;;1.63;1.50;;;9.20;99.90;;;;;;5091827;28;20522;-62
2023/01/04 03:07:31;;;;;;;3.47;2.10;;;9.10;99.90;;;;;;5094923;28;20056;-60
2023/01/04 03:10:12;;;;;;;4.30;2.20;;;9.30;99.90;;;;;;5074687;28;20174;-60
2023/01/04 03:12:43;;;;;;;3.53;2.55;;;9.20;99.90;;;;;;5084383;28;20036;-57
2023/01/04 03:15:29;;;;;;;4.93;2.65;;;9.30;99.90;;;;;;5094712;28;20051;-60
2023/01/04 03:18:00;;;;;;;3.90;2.53;;;9.50;99.90;;;;;;5081348;28;20405;-61
2023/01/04 03:20:31;;;;;;;4.50;2.88;;;9.40;99.90;;;;;;5070227;28;20487;-61
2023/01/04 03:37:30;;;;;;;4.40;3.30;;;9.40;99.90;;;;;;5079109;28;20479;-61
2023/01/04 03:49:22;;;;;;;3.38;3.08;;;9.70;99.90;;;;;;5094981;28;20173;-60
2023/01/04 03:51:51;;;;;;;4.20;3.30;;;9.70;99.90;;;;;;5085951;28;20055;-61
2023/01/04 03:54:22;;;;;;;3.63;3.33;;;9.70;99.90;;;;;;5084979;28;20425;-61
2023/01/04 03:56:49;;;;;;;4.38;3.80;;;9.70;99.90;;;;;;5076231;28;20052;-61
2023/01/04 03:59:15;;;;;;;4.53;3.92;;;9.70;99.90;;;;;;5093342;28;20051;-61
2023/01/04 04:01:42;;;;;;;4.57;3.92;;;9.80;99.90;;;;;;5094234;28;20027;-60
2023/01/04 04:09:43;;;;;;;4.80;4.30;;;9.70;99.90;;;;;;5095673;28;19916;-62
2023/01/04 04:12:09;;;;;;;4.88;4.38;;;9.90;99.90;;;;;;5089346;28;20051;-60
2023/01/04 04:14:35;;;;;;;5.40;4.65;;;10.00;99.90;;;;;;5080109;28;20106;-63
2023/01/04 04:17:00;;;;;;;5.90;5.30;;;9.90;99.90;;;;;;5089347;28;20087;-60
2023/01/04 04:19:26;;;;;;;6.47;4.90;;;9.90;99.90;;;;;;5098245;28;20043;-60
2023/01/04 04:21:51;;;;;;;5.13;4.63;;;10.00;99.90;;;;;;5095458;28;20040;-60
2023/01/04 04:24:20;;;;;;;5.90;4.88;;;9.90;99.90;;;;;;5095191;28;20040;-60
2023/01/04 04:26:45;;;;;;;5.70;5.10;;;10.00;99.90;;;;;;5093491;28;20382;-58
2023/01/04 04:29:21;;;;;;;5.57;4.95;;;10.00;99.90;;;;;;5118624;28;20044;-60
2023/01/04 04:31:47;;;;;;;6.43;5.65;;;10.00;99.90;;;;;;5099522;28;20116;-60
2023/01/04 04:34:13;;;;;;;5.95;5.45;;;10.00;99.90;;;;;;5088355;28;20102;-60
2023/01/04 04:36:40;;;;;;;6.13;5.53;;;10.10;99.90;;;;;;5110742;28;20095;-60
2023/01/04 04:39:05;;;;;;;6.90;6.22;;;10.20;99.90;;;;;;5096878;28;20071;-60
2023/01/04 04:41:37;;;;;;;6.63;6.03;;;10.10;99.90;;;;;;5091064;28;20035;-59
2023/01/04 04:44:08;;;;;;;7.97;6.43;;;10.20;99.90;;;;;;5089873;28;20036;-60
2023/01/04 04:46:33;;;;;;;6.93;6.22;;;10.10;99.90;;;;;;5084478;28;20040;-61
2023/01/04 04:48:59;;;;;;;7.15;6.30;;;10.20;99.90;;;;;;5097094;28;20240;-60
2023/01/04 04:51:25;;;;;;;7.47;6.72;;;10.20;99.90;;;;;;5109792;28;20048;-61
2023/01/04 04:53:51;;;;;;;7.10;6.38;;;10.10;99.90;;;;;;5088432;28;20052;-60
2023/01/04 04:56:16;;;;;;;6.97;6.28;;;10.20;99.90;;;;;;5082962;28;20039;-58
2023/01/04 04:58:42;;;;;;;7.20;6.50;;;10.10;99.90;;;;;;5092178;28;20079;-59
2023/01/04 05:01:07;;;;;;;7.40;6.70;;;10.20;99.90;;;;;;5079136;28;20373;-60
2023/01/04 05:03:33;;;;;;;7.43;6.70;;;10.30;99.90;;;;;;5096701;28;20039;-61
2023/01/04 05:05:59;;;;;;;8.02;7.22;;;10.20;99.90;;;;;;5093827;28;20067;-61
2023/01/04 05:08:25;;;;;;;8.18;7.38;;;10.30;99.90;;;;;;5091388;28;20058;-60
2023/01/04 05:10:50;;;;;;;7.35;6.60;;;10.30;99.90;;;;;;5097306;28;20051;-60
2023/01/04 05:13:16;;;;;;;7.75;6.53;;;10.40;99.90;;;;;;5096009;28;20036;-60
2023/01/04 05:15:44;;;;;;;8.23;6.45;;;10.40;99.90;;;;;;5091631;28;20043;-61
2023/01/04 05:18:12;;;;;;;7.75;7.00;;;10.30;99.90;;;;;;5077220;28;20500;-60
2023/01/04 05:20:38;;;;;;;6.72;6.03;;;10.40;99.90;;;;;;5061377;28;20386;-59
2023/01/04 05:23:05;;;;;;;7.55;5.75;;;10.40;99.90;;;;;;5099419;28;20504;-61
2023/01/04 05:25:30;;;;;;;5.97;5.38;;;10.50;99.90;;;;;;5085476;28;20063;-60
2023/01/04 05:28:04;;;;;;;5.93;5.10;;;10.50;99.90;;;;;;5079630;28;20091;-60
2023/01/04 05:33:14;;;;;;;6.68;5.10;;;10.50;99.90;;;;;;5057737;28;20052;-60
2023/01/04 05:35:52;;;;;;;6.10;4.80;;;10.60;99.90;;;;;;5065747;28;20040;-59
2023/01/04 05:38:19;;;;;;;8.32;5.28;;;10.70;99.90;;;;;;5076566;28;20039;-60
2023/01/04 05:40:45;;;;;;;6.72;5.32;;;10.70;99.90;;;;;;5076535;28;20083;-60
2023/01/04 05:43:12;;;;;;;6.25;4.85;;;10.60;99.90;;;;;;5076527;28;20068;-61
2023/01/04 05:45:38;;;;;;;7.10;5.22;;;10.70;99.90;;;;;;5061214;28;20033;-60
2023/01/04 05:48:04;;;;;;;6.70;4.93;;;10.70;99.90;;;;;;5056587;28;20028;-58
2023/01/04 05:50:30;;;;;;;6.45;4.47;;;10.80;99.90;;;;;;5064390;28;20171;-61
2023/01/04 05:52:55;;;;;;;6.60;4.63;;;10.80;99.90;;;;;;5074927;28;20067;-60
2023/01/04 05:55:21;;;;;;;6.32;4.40;;;10.80;99.90;;;;;;5071614;28;20115;-60
2023/01/04 05:57:47;;;;;;;6.13;4.55;;;10.70;99.90;;;;;;5070013;28;20036;-60
2023/01/04 06:00:13;;;;;;;6.82;4.57;;;10.80;99.90;;;;;;5064909;28;20037;-62
2023/01/04 06:02:40;;;;;;;5.05;4.22;;;10.90;99.90;;;;;;5048221;28;20048;-61
2023/01/04 06:05:06;;;;;;;8.98;4.95;;;10.80;99.90;;;;;;5070349;28;20098;-62
2023/01/04 06:07:32;;;;;;;7.00;5.25;;;10.80;99.90;;;;;;5069137;28;20067;-60
2023/01/04 06:09:58;;;;;;;6.15;4.63;;;10.70;99.90;;;;;;5072809;28;20364;-60
2023/01/04 06:12:23;;;;;;;8.30;4.72;;;10.90;99.90;;;;;;5071937;28;20029;-60
2023/01/04 06:14:49;;;;;;;6.43;4.35;;;10.80;99.90;;;;;;5072407;28;20047;-60
2023/01/04 06:17:14;;;;;;;5.38;4.25;;;10.90;99.90;;;;;;5069759;28;20032;-60
2023/01/04 06:19:40;;;;;;;6.75;4.25;;;10.80;99.90;;;;;;5069572;28;20380;-62
2023/01/04 06:22:06;;;;;;;5.80;3.65;;;11.00;99.90;;;;;;5067268;28;20039;-61
2023/01/04 06:24:35;;;;;;;6.32;3.47;;;11.00;99.90;;;;;;5068539;28;20108;-61
2023/01/04 06:27:07;;;;;;;6.63;4.05;;;10.90;99.90;;;;;;5059033;28;20364;-60
2023/01/04 06:29:32;;;;;;;7.45;4.10;;;10.80;99.90;;;;;;5090713;28;20051;-60
2023/01/04 06:31:58;;;;;;;4.05;3.50;;;10.80;99.90;;;;;;5082075;28;20044;-61
2023/01/04 06:34:23;;;;;;;5.03;3.50;;;10.80;99.90;;;;;;5091375;28;20045;-60
2023/01/04 06:36:49;;;;;;;4.28;3.33;;;10.90;99.90;;;;;;5064763;28;20043;-60
2023/01/04 06:39:14;;;;;;;3.83;3.08;;;10.90;99.90;;;;;;5094751;28;20036;-61
2023/01/04 06:41:40;;;;;;;4.85;3.08;;;10.80;99.90;;;;;;5094421;28;20111;-61
2023/01/04 06:44:06;;;;;;;4.63;3.00;;;10.80;99.90;;;;;;5095447;28;20044;-61
2023/01/04 06:46:31;;;;;;;4.35;3.10;;;10.90;99.90;;;;;;5084622;28;20041;-58
2023/01/04 06:48:57;;;;;;;4.10;3.05;;;10.90;99.90;;;;;;5095907;28;20032;-59
2023/01/04 06:51:23;;;;;;;4.18;2.80;;;10.90;99.90;;;;;;5095882;28;20036;-60
2023/01/04 06:53:49;;;;;;;3.30;2.90;;;10.90;99.90;;;;;;5095799;28;20090;-60
2023/01/04 06:56:15;;;;;;;3.20;2.90;;;10.90;99.90;;;;;;5095314;28;20043;-60
2023/01/04 06:58:40;;;;;;;3.78;2.83;;;11.00;99.90;;;;;;5095631;28;20047;-60
2023/01/04 07:01:06;;;;;;;2.83;2.53;;;11.00;99.90;;;;;;5094925;28;20036;-60
2023/01/04 07:03:32;;;;;;;4.03;2.90;;;11.00;99.90;;;;;;5094923;28;20043;-60
2023/01/04 07:05:58;;;;;;;3.17;2.83;;;10.90;99.90;;;;;;5095471;28;20036;-58
2023/01/04 07:08:24;;;;;;;4.03;3.13;;;10.90;99.90;;;;;;5082183;28;20090;-60
2023/01/04 07:10:49;;;;;;;3.63;3.15;;;10.90;99.90;;;;;;5082906;28;20482;-60
2023/01/04 07:13:15;;;;;;;4.10;3.10;;;10.90;99.90;;;;;;5091655;28;20037;-60
2023/01/04 07:15:41;;;;;;;3.70;3.20;;;11.10;99.90;;;;;;5084440;28;20085;-60
2023/01/04 07:18:08;;;;;;;5.00;3.40;;;10.90;99.90;;;;;;5077398;28;20040;-61
2023/01/04 07:20:34;;;;;;;4.75;3.50;;;11.00;99.90;;;;;;5095125;28;20064;-60
2023/01/04 07:23:00;;;;;;;4.53;3.08;;;10.90;99.90;;;;;;5095049;28;20036;-61
2023/01/04 07:25:25;;;;;;;5.32;3.60;;;10.90;99.90;;;;;;5095146;28;20043;-60
2023/01/04 07:27:54;;;;;;;4.63;3.47;;;10.90;99.90;;;;;;5082379;28;20056;-60
2023/01/04 07:30:22;;;;;;;4.25;3.20;;;11.00;99.90;;;;;;5074582;28;20088;-60
2023/01/04 07:32:50;;;;;;;4.20;3.67;;;11.00;99.90;;;;;;5074751;28;20535;-60
2023/01/04 07:35:16;;;;;;;4.50;3.75;;;11.00;99.90;;;;;;5073098;28;20036;-62
2023/01/04 07:37:42;;;;;;;5.53;4.30;;;10.90;99.90;;;;;;5068260;28;20346;-60
2023/01/04 07:40:09;;;;;;;5.43;3.72;;;11.00;99.90;;;;;;5069584;28;20051;-61
2023/01/04 07:42:36;;;;;;;6.50;4.03;;;11.00;99.90;;;;;;5071313;28;20041;-61
2023/01/04 07:45:03;;;;;;;7.25;4.38;;;11.10;99.90;;;;;;5057101;28;20044;-61
2023/01/04 07:47:28;;;;;;;7.55;4.47;;;11.00;99.90;;;;;;5074608;28;20044;-58
2023/01/04 07:49:54;;;;;;;6.20;5.05;;;11.00;99.90;;;;;;5074088;28;20040;-59
2023/01/04 07:52:20;;;;;;;7.55;4.40;;;11.10;99.90;;;;;;5066958;28;20504;-61
2023/01/04 07:54:45;;;;;;;5.82;4.88;;;11.10;99.90;;;;;;5054396;28;20450;-60
2023/01/04 07:57:11;;;;;;;6.55;5.35;;;11.10;99.90;;;;;;5057071;28;20131;-60
2023/01/04 07:59:36;;;;;;;7.90;4.50;;;11.00;99.90;;;;;;5069357;28;20071;-61
2023/01/04 08:02:02;;;;;;;7.30;5.25;;;11.20;99.90;;;;;;5060153;28;20036;-61
2023/01/04 08:04:28;;;;;;;6.88;4.90;;;11.10;99.90;;;;;;5053867;28;20029;-61
2023/01/04 08:06:53;;;;;;;6.68;4.40;;;11.00;99.90;;;;;;5073797;28;20487;-61
2023/01/04 08:09:19;;;;;;;7.90;4.93;;;11.10;99.90;;;;;;5072712;28;20036;-61
2023/01/04 08:11:45;;;;;;;6.47;4.78;;;11.20;99.90;;;;;;5058634;28;20375;-58
2023/01/04 08:14:11;;;;;;;7.13;4.75;;;11.10;99.90;;;;;;5067888;28;20047;-60
2023/01/04 08:16:39;;;;;;;6.90;4.80;;;11.20;99.90;;;;;;5068313;28;20361;-60
2023/01/04 08:19:13;;;;;;;7.18;4.70;;;11.20;99.90;;;;;;5074019;28;20040;-62
2023/01/04 08:21:39;;;;;;;7.60;4.72;;;11.20;99.90;;;;;;5055574;28;20121;-61
2023/01/04 08:24:05;;;;;;;7.07;4.80;;;11.30;99.90;;;;;;5053992;28;20460;-60
2023/01/04 08:26:31;;;;;;;6.78;3.97;;;11.10;99.90;;;;;;5065554;28;20128;-61
2023/01/04 08:28:59;;;;;;;5.85;4.45;;;11.10;99.90;;;;;;5074476;28;20402;-60
2023/01/04 08:31:28;;;;;;;6.38;4.20;;;11.20;99.90;;;;;;5100458;28;20036;-60
2023/01/04 08:33:55;;;;;;;4.75;3.80;;;11.30;99.90;;;;;;5094340;28;20091;-60
2023/01/04 08:36:24;;;;;;;5.65;3.95;;;11.30;99.90;;;;;;5112541;28;20130;-60
2023/01/04 08:38:56;;;;;;;5.55;4.00;;;11.20;99.90;;;;;;5104869;28;20040;-60
2023/01/04 08:41:22;;;;;;;6.82;3.58;;;11.30;99.90;;;;;;5098499;28;20094;-61
2023/01/04 08:43:48;;;;;;;6.47;4.10;;;11.20;99.90;;;;;;5093762;28;20036;-62
2023/01/04 08:46:14;;;;;;;6.43;4.03;;;11.30;99.90;;;;;;5093946;28;20368;-61
2023/01/04 08:48:41;;;;;;;5.18;4.32;;;11.10;99.90;;;;;;5100549;28;20039;-61
2023/01/04 08:51:12;;;;;;;6.07;4.47;;;11.20;99.90;;;;;;5093968;28;20044;-59
2023/01/04 08:53:38;;;;;;;6.40;4.28;;;11.20;99.90;;;;;;5111145;28;20116;-62
2023/01/04 08:56:05;;;;;;;6.93;4.70;;;11.30;99.90;;;;;;5094045;28;20123;-62
2023/01/04 08:58:31;;;;;;;6.25;4.38;;;11.30;99.90;;;;;;5112584;28;20043;-61
2023/01/04 09:01:01;;;;;;;6.57;4.72;;;11.10;99.90;;;;;;5098630;28;20390;-59
2023/01/04 09:03:28;;;;;;;6.55;4.43;;;11.30;99.90;;;;;;5096220;28;20102;-59
2023/01/04 09:06:00;;;;;;;5.28;4.18;;;11.10;99.90;;;;;;5096793;28;20032;-61
2023/01/04 09:08:26;;;;;;;5.25;3.60;;;11.10;99.90;;;;;;5103426;28;20080;-61
2023/01/04 09:10:51;;;;;;;4.65;3.45;;;11.30;99.90;;;;;;5082712;28;20140;-62
2023/01/04 09:13:17;;;;;;;6.00;3.03;;;11.20;99.90;;;;;;5090334;28;20522;-61
2023/01/04 09:15:42;;;;;;;4.97;2.67;;;11.20;99.90;;;;;;5105456;28;20413;-59
2023/01/04 09:18:10;;;;;;;3.83;2.28;;;11.40;99.90;;;;;;5080422;28;20445;-59
2023/01/04 09:20:36;;;;;;;3.05;2.38;;;11.20;99.90;;;;;;5077305;28;20037;-61
2023/01/04 09:23:02;;;;;;;3.05;2.20;;;11.30;99.90;;;;;;5087842;28;20035;-61
2023/01/04 09:25:27;;;;;;;2.63;1.77;;;11.30;99.90;;;;;;5097161;28;20127;-60
2023/01/04 09:27:54;;;;;;;1.50;1.40;;;11.30;99.90;;;;;;5096957;28;20055;-61
2023/01/04 09:30:19;;;;;;;2.63;1.40;;;11.20;99.90;;;;;;5097263;28;20046;-61
2023/01/04 09:32:45;;;;;;;2.05;1.23;;;11.30;99.90;;;;;;5096957;28;20111;-61
2023/01/04 09:35:11;;;;;;;3.00;1.30;;;11.40;99.90;;;;;;5097213;28;20039;-59
2023/01/04 09:37:36;;;;;;;2.42;1.20;;;11.40;99.90;;;;;;5096993;28;20415;-61
2023/01/04 09:40:02;;;;;;;1.42;1.30;;;11.30;99.90;;;;;;5062296;28;20032;-60
2023/01/04 09:42:34;;;;;;;1.40;1.30;;;11.30;99.90;;;;;;5099169;28;20464;-60
2023/01/04 09:45:23;;;;;;;1.85;1.30;;;11.50;99.90;;;;;;5097144;28;20028;-60
2023/01/04 09:47:59;;;;;;;1.40;1.30;;;11.50;99.90;;;;;;5096931;28;20067;-60
2023/01/04 09:50:30;;;;;;;1.80;1.30;;;11.50;99.90;;;;;;5107112;28;20108;-59
2023/01/04 09:53:17;;;;;;;1.90;1.30;;;11.50;99.90;;;;;;5107097;28;20028;-60
2023/01/04 09:55:48;;;;;;;1.52;1.10;;;11.60;99.90;;;;;;5096645;28;20054;-60
2023/01/04 09:58:28;;;;;;;2.35;1.00;;;11.60;99.90;;;;;;5096783;28;20036;-60
2023/01/04 10:01:03;;;;;;;1.77;1.30;;;11.60;99.90;;;;;;5096202;28;20036;-58
2023/01/04 10:03:40;;;;;;;2.50;1.45;;;11.60;99.90;;;;;;5096291;28;20070;-61
2023/01/04 10:06:11;;;;;;;2.03;1.17;;;11.50;99.90;;;;;;5085237;28;20040;-60
2023/01/04 10:08:37;;;;;;;4.03;1.60;;;11.40;99.90;;;;;;5095406;28;20371;-61
2023/01/04 10:11:26;;;;;;;2.20;1.50;;;11.50;99.90;;;;;;5095377;28;20051;-60
2023/01/04 10:14:21;;;;;;;3.88;1.88;;;11.50;99.90;;;;;;5095410;28;20047;-60
2023/01/04 10:16:47;;;;;;;;;;;11.70;99.90;;;;;;5084472;28;20055;-62
2023/01/04 10:19:42;;;;;;;5.82;2.00;;;11.60;99.90;;;;;;5096255;28;19916;-62
2023/01/04 10:22:26;;;;;;;8.95;2.45;;;11.80;99.90;;;;;;5100435;28;20039;-62
2023/01/04 10:25:05;;;;;;;8.07;2.65;;;11.60;99.90;;;;;;5081660;28;20028;-62
2023/01/04 10:27:49;;;;;;;7.63;2.15;;;11.70;99.90;;;;;;5087682;28;20126;-62
2023/01/04 10:30:23;;;;;;;7.30;2.38;;;11.80;99.90;;;;;;5070237;28;20095;-62
2023/01/04 10:33:09;;;;;;;10.40;2.95;;;12.10;99.90;;;;;;5063070;28;20036;-62
2023/01/04 10:35:35;;;;;;;11.82;2.70;;;12.10;99.90;;;;;;5071903;28;20380;-59
2023/01/04 10:38:03;;;;;;;10.77;2.40;;;12.10;99.90;;;;;;5075148;28;20040;-58
2023/01/04 10:40:36;;;;;;;10.00;2.83;;;12.10;99.90;;;;;;5075031;28;20356;-59
2023/01/04 10:43:06;;;;;;;8.98;2.60;;;12.10;99.90;;;;;;5057568;28;20041;-58
2023/01/04 10:45:38;;;;;;;11.15;2.70;;;12.20;99.90;;;;;;5057433;28;20038;-58
2023/01/04 10:48:20;;;;;;;10.20;2.70;;;12.30;99.90;;;;;;5075026;28;20113;-60
2023/01/04 10:51:05;;;;;;;10.10;3.00;;;12.30;99.90;;;;;;5074992;28;20045;-60
2023/01/04 10:53:47;;;;;;;9.75;2.65;;;12.20;99.90;;;;;;5075274;28;20037;-60
2023/01/04 10:56:28;;;;;;;13.10;2.90;;;12.30;99.90;;;;;;5075238;28;20146;-60
2023/01/04 10:59:11;;;;;;;10.15;2.78;;;12.30;99.90;;;;;;5057780;28;20453;-61
2023/01/04 11:01:42;;;;;;;11.10;3.15;;;12.30;99.90;;;;;;5061521;28;20188;-60
2023/01/04 11:04:14;;;;;;;11.38;2.90;;;12.30;99.90;;;;;;5069063;28;20120;-61
2023/01/04 11:07:22;;;;;;;12.98;3.10;;;12.30;99.90;;;;;;5069997;28;20040;-61
2023/01/04 11:09:48;;;;;;;13.20;3.15;;;12.40;99.90;;;;;;4963857;28;20125;-61
2023/01/04 11:12:16;;;;;;;14.45;3.30;;;12.40;99.90;;;;;;4957285;28;20047;-61
2023/01/04 11:14:42;;;;;;;11.77;3.42;;;12.50;99.90;;;;;;5021651;28;20445;-61
2023/01/04 11:17:10;;;;;;;11.60;3.20;;;12.50;99.90;;;;;;5054999;28;20044;-61
2023/01/04 11:19:36;;;;;;;11.30;3.35;;;12.40;99.90;;;;;;5055134;28;20093;-62
2023/01/04 11:22:36;;;;;;;10.57;2.85;;;12.50;99.90;;;;;;5060324;28;20483;-62
2023/01/04 11:25:06;;;;;;;12.43;3.33;;;12.60;99.90;;;;;;5061621;28;20079;-61
2023/01/04 11:27:43;;;;;;;15.63;3.50;;;12.50;99.90;;;;;;5053095;28;20064;-61
2023/01/04 11:30:18;;;;;;;18.05;3.88;;;12.50;99.90;;;;;;5075017;28;20479;-62
2023/01/04 11:33:10;;;;;;;16.40;3.70;;;12.60;99.90;;;;;;5074900;28;20086;-61
2023/01/04 11:35:39;;;;;;;14.70;3.40;;;12.60;99.90;;;;;;5056973;28;20052;-61
2023/01/04 11:38:20;;;;;;;14.93;3.85;;;12.60;99.90;;;;;;5075001;28;20043;-60
2023/01/04 11:41:01;;;;;;;14.93;4.13;;;12.50;99.90;;;;;;5057016;28;20055;-61
2023/01/04 11:43:34;;;;;;;11.65;3.22;;;12.70;99.90;;;;;;5074816;28;20037;-62
2023/01/04 11:46:04;;;;;;;11.48;3.53;;;12.60;99.90;;;;;;5083752;28;20124;-60
2023/01/04 11:48:42;;;;;;;10.75;2.97;;;12.60;99.90;;;;;;5088665;28;20075;-59
2023/01/04 11:51:25;;;;;;;15.20;3.75;;;12.70;99.90;;;;;;5071782;28;20048;-59
2023/01/04 11:54:18;;;;;;;13.52;3.25;;;12.60;99.90;;;;;;5074489;28;20119;-60
2023/01/04 11:57:02;;;;;;;12.30;3.40;;;12.60;99.90;;;;;;5083309;28;20041;-60
2023/01/04 11:59:29;;;;;;;8.43;2.83;;;12.70;99.90;;;;;;5060980;28;20051;-62
2023/01/04 12:02:18;;;;;;;6.10;2.00;;;12.70;99.90;;;;;;5066536;28;20039;-61
2023/01/04 12:04:44;;;;;;;6.07;1.90;;;12.70;99.90;;;;;;5079294;28;20352;-61
2023/01/04 12:07:31;;;;;;;5.07;1.80;;;12.60;99.90;;;;;;5081880;28;20039;-62
2023/01/04 12:09:58;;;;;;;4.53;1.45;;;12.50;99.90;;;;;;5083876;28;20079;-62
2023/01/04 12:12:29;;;;;;;4.82;1.55;;;12.60;99.90;;;;;;5082602;28;20036;-61
2023/01/04 12:14:59;;;;;;;4.13;1.17;;;12.50;99.90;;;;;;5067942;28;20033;-62
2023/01/04 12:17:34;;;;;;;4.53;1.50;;;12.50;99.90;;;;;;5073285;28;20048;-63
2023/01/04 12:20:03;;;;;;;5.07;1.40;;;12.50;99.90;;;;;;5070769;28;20108;-62
2023/01/04 12:22:46;;;;;;;6.45;1.70;;;12.60;99.90;;;;;;5081482;28;20032;-62
2023/01/04 12:25:32;;;;;;;6.10;1.80;;;12.50;99.90;;;;;;5084600;28;20047;-61
2023/01/04 12:28:00;;;;;;;5.75;1.88;;;12.50;99.90;;;;;;5100494;28;20524;-61
2023/01/04 12:30:45;;;;;;;8.05;2.88;;;12.50;99.90;;;;;;5083380;28;20032;-61
2023/01/04 12:33:29;;;;;;;6.05;1.92;;;12.60;99.90;;;;;;5077018;28;20337;-61
2023/01/04 12:36:00;;;;;;;5.00;1.58;;;12.50;99.90;;;;;;5087325;28;20478;-63
2023/01/04 12:38:51;;;;;;;8.38;2.10;;;12.40;99.90;;;;;;5098370;28;20507;-61
2023/01/04 12:41:19;;;;;;;6.53;1.80;;;12.50;99.90;;;;;;5083577;28;20055;-61
2023/01/04 12:43:48;;;;;;;9.20;2.33;;;12.40;99.90;;;;;;5104636;28;20031;-63
2023/01/04 12:49:26;;;;;;;7.90;2.90;;;12.60;99.90;;;;;;5089743;28;20109;-61
2023/01/04 12:52:07;;;;;;;10.85;2.67;;;12.50;99.90;;;;;;5113476;28;20138;-60
2023/01/04 12:54:50;;;;;;;9.80;2.90;;;12.60;99.90;;;;;;5084348;28;20435;-60
2023/01/04 12:57:15;;;;;;;11.13;2.83;;;12.60;99.90;;;;;;5097906;28;20040;-63
2023/01/04 12:59:58;;;;;;;12.82;3.28;;;12.50;99.90;;;;;;5097102;28;20077;-59
2023/01/04 13:02:26;;;;;;;10.07;2.78;;;12.50;99.90;;;;;;5097691;28;20055;-60
2023/01/04 13:05:01;;;;;;;15.05;3.50;;;12.50;99.90;;;;;;5091529;28;20029;-61
2023/01/04 13:07:32;;;;;;;12.00;3.13;;;12.60;99.90;;;;;;5098732;28;20036;-61
2023/01/04 13:10:00;;;;;;;14.80;3.70;;;12.70;99.90;;;;;;5089274;28;20044;-60
2023/01/04 13:12:49;;;;;;;16.90;3.90;;;12.70;99.90;;;;;;5095007;28;20072;-61
2023/01/04 13:15:52;;;;;;;13.40;3.30;;;12.80;99.90;;;;;;5103842;28;20036;-61
2023/01/04 13:18:40;;;;;;;14.50;3.50;;;12.80;99.90;;;;;;5118084;28;20072;-61
2023/01/04 13:21:13;;;;;;;15.70;3.95;;;12.70;99.90;;;;;;5109754;28;20036;-61
2023/01/04 13:23:45;;;;;;;16.25;3.97;;;12.70;99.90;;;;;;5097262;28;20036;-60
2023/01/04 13:26:30;;;;;;;15.07;4.07;;;12.80;99.90;;;;;;5098927;28;20040;-60
2023/01/04 13:29:06;;;;;;;;;;;12.80;99.90;;;;;;5095854;28;20080;-61
2023/01/04 13:31:54;;;;;;;14.00;4.35;;;12.70;99.90;;;;;;5076947;28;19946;-60
2023/01/04 13:34:21;;;;;;;13.20;4.25;;;12.80;99.90;;;;;;5086349;28;20112;-60
2023/01/04 13:37:17;;;;;;;18.35;4.75;;;12.80;99.90;;;;;;5095972;28;20031;-59
2023/01/04 13:39:46;;;;;;;17.50;4.68;;;12.80;99.90;;;;;;5096907;28;20440;-60
2023/01/04 13:42:22;;;;;;;16.10;4.03;;;12.70;99.90;;;;;;5097055;28;20111;-59
2023/01/04 13:45:05;;;;;;;13.77;3.53;;;12.80;99.90;;;;;;5089301;28;20035;-60
2023/01/04 13:47:38;;;;;;;13.57;3.50;;;12.80;99.90;;;;;;5097238;28;20479;-61
2023/01/04 13:50:14;;;;;;;17.87;3.97;;;12.90;99.90;;;;;;5082906;28;20181;-61
2023/01/04 13:52:43;;;;;;;13.18;3.55;;;12.80;99.90;;;;;;5089663;28;20266;-61